Airfield :
LOGIN :

Register | Disclaimer

   EN    FR    IT 

 










Legend :    VFR   Marginal VFR   IFR   Intensive IFR   Very Intensive IFR
Visi :
Ceiling :
>= 8 km
>= 3000ft
5 to 8 km
1000 to 3000 ft
1500m to 5 km
500 to 1000 ft
800 to 1500m
200 to 500 ft
< 800m
< 200 ft
Symbols :   Thunderstorms  Fog  Heavy snow  Heavy precipitations  Wind > 20 kt
SIGMETs :     Misc.  Thunderstorms  Icing  Turbulence  Mountain Waves  Volcanic Ashes







- Airport Elevation : 1367 ft
- IATA code : FDH


EDNY - Friedrichshafen

CURRENT METAR :
  • 182150Z AUTO VRB01KT 1600 0350/ R24/0800VP2000U BR 07/07 Q1016

EXPIRED METARs :
  • 182120Z AUTO VRB02KT 2200 0750/ R24/P2000N BR 07/07 Q1016
  • 182050Z AUTO VRB02KT 0500 0200/ R24/P2000N BCFG 07/07 Q1016
  • 182020Z AUTO VRB02KT 1200 0200/ R24/P2000N BR 07/07 Q1016
  • 181950Z VRB01KT 5000 BR NSC 08/08 Q1016
  • 181920Z 00000KT 8000 MIFG NSC 09/08 Q1016

TAF TAF EDNY
Valid from the 18 at 18:00 until the 19 at 18:00 UTC


181700Z 1818/1918 VRB03KT 9000 NSC
BECMG 1821/1824 2500 BCFG
TEMPO 1823/1908 0400 FG VV001
BECMG 1907/1909 7000
No reported NOTAMs for that airfield.



MET'MAP, your aeronautical weather chart ! - Copyright ORBIFLY December 2007 - Disclaimer

ORBIFLY MET'MAP TEAM :

Programming & Development : Alexandra Zaïnal
Concept & Development : Baudouin d'Aumeries
Co-Development & Prog : Marc-Olivier Méhu
Technical & hardware support : Manuel Goepfert

Contact : metmap@orbifly.com




SOURCES & CREDITS :

   NOAA